sensor_id;sensor_type;location;lat;lon;timestamp;P1;durP1;ratioP1;P2;durP2;ratioP2
10939;SDS011;5522;42.696;23.494;2023-02-08T00:00:05;30.17;;;13.80;;
10939;SDS011;5522;42.696;23.494;2023-02-08T00:02:32;26.27;;;12.63;;
10939;SDS011;5522;42.696;23.494;2023-02-08T00:04:59;25.10;;;11.15;;
10939;SDS011;5522;42.696;23.494;2023-02-08T00:07:26;25.70;;;11.50;;
10939;SDS011;5522;42.696;23.494;2023-02-08T00:09:52;26.67;;;12.80;;
10939;SDS011;5522;42.696;23.494;2023-02-08T00:12:19;24.75;;;11.40;;
10939;SDS011;5522;42.696;23.494;2023-02-08T00:14:46;26.95;;;12.02;;
10939;SDS011;5522;42.696;23.494;2023-02-08T00:17:14;24.70;;;11.48;;
10939;SDS011;5522;42.696;23.494;2023-02-08T00:19:41;25.63;;;11.77;;
10939;SDS011;5522;42.696;23.494;2023-02-08T00:22:08;22.55;;;11.43;;
10939;SDS011;5522;42.696;23.494;2023-02-08T00:24:35;25.27;;;11.45;;
10939;SDS011;5522;42.696;23.494;2023-02-08T00:27:02;21.95;;;9.75;;
10939;SDS011;5522;42.696;23.494;2023-02-08T00:29:28;23.63;;;11.13;;
10939;SDS011;5522;42.696;23.494;2023-02-08T00:31:55;22.05;;;9.80;;
10939;SDS011;5522;42.696;23.494;2023-02-08T00:34:24;22.48;;;9.82;;
10939;SDS011;5522;42.696;23.494;2023-02-08T00:36:50;25.48;;;11.00;;
10939;SDS011;5522;42.696;23.494;2023-02-08T00:39:17;26.48;;;11.95;;
10939;SDS011;5522;42.696;23.494;2023-02-08T00:41:45;33.13;;;13.50;;
10939;SDS011;5522;42.696;23.494;2023-02-08T00:44:12;47.58;;;18.48;;
10939;SDS011;5522;42.696;23.494;2023-02-08T00:46:39;37.45;;;15.07;;
10939;SDS011;5522;42.696;23.494;2023-02-08T00:49:05;29.95;;;13.48;;
10939;SDS011;5522;42.696;23.494;2023-02-08T00:51:34;25.15;;;12.07;;
10939;SDS011;5522;42.696;23.494;2023-02-08T00:54:00;23.73;;;11.32;;
10939;SDS011;5522;42.696;23.494;2023-02-08T00:56:27;22.48;;;11.98;;
10939;SDS011;5522;42.696;23.494;2023-02-08T00:58:54;23.23;;;9.88;;
10939;SDS011;5522;42.696;23.494;2023-02-08T01:06:31;25.38;;;12.43;;
10939;SDS011;5522;42.696;23.494;2023-02-08T01:09:02;23.40;;;12.80;;
10939;SDS011;5522;42.696;23.494;2023-02-08T01:11:29;18.35;;;9.45;;
10939;SDS011;5522;42.696;23.494;2023-02-08T01:13:56;22.45;;;10.30;;
10939;SDS011;5522;42.696;23.494;2023-02-08T01:16:24;21.55;;;9.23;;
10939;SDS011;5522;42.696;23.494;2023-02-08T01:18:53;20.52;;;9.27;;
10939;SDS011;5522;42.696;23.494;2023-02-08T01:21:21;19.77;;;10.80;;
10939;SDS011;5522;42.696;23.494;2023-02-08T01:23:51;23.90;;;10.68;;
10939;SDS011;5522;42.696;23.494;2023-02-08T01:26:19;19.13;;;9.02;;
10939;SDS011;5522;42.696;23.494;2023-02-08T01:28:46;23.90;;;10.57;;
10939;SDS011;5522;42.696;23.494;2023-02-08T01:31:15;23.35;;;10.63;;
10939;SDS011;5522;42.696;23.494;2023-02-08T01:33:43;22.02;;;11.68;;
10939;SDS011;5522;42.696;23.494;2023-02-08T01:36:11;23.05;;;10.50;;
10939;SDS011;5522;42.696;23.494;2023-02-08T01:38:38;24.92;;;11.73;;
10939;SDS011;5522;42.696;23.494;2023-02-08T01:41:07;25.75;;;11.65;;
10939;SDS011;5522;42.696;23.494;2023-02-08T01:46:28;19.88;;;10.02;;
10939;SDS011;5522;42.696;23.494;2023-02-08T01:48:55;19.23;;;9.95;;
10939;SDS011;5522;42.696;23.494;2023-02-08T01:51:25;24.40;;;10.95;;
10939;SDS011;5522;42.696;23.494;2023-02-08T01:53:55;21.15;;;10.23;;
10939;SDS011;5522;42.696;23.494;2023-02-08T01:56:27;24.65;;;11.57;;
10939;SDS011;5522;42.696;23.494;2023-02-08T01:58:58;19.35;;;9.57;;
10939;SDS011;5522;42.696;23.494;2023-02-08T02:01:27;20.50;;;10.88;;
10939;SDS011;5522;42.696;23.494;2023-02-08T02:03:55;24.48;;;11.23;;
10939;SDS011;5522;42.696;23.494;2023-02-08T02:06:25;22.65;;;11.38;;
10939;SDS011;5522;42.696;23.494;2023-02-08T02:08:56;24.23;;;11.60;;
10939;SDS011;5522;42.696;23.494;2023-02-08T02:11:32;23.67;;;11.95;;
10939;SDS011;5522;42.696;23.494;2023-02-08T02:13:58;24.38;;;11.40;;
10939;SDS011;5522;42.696;23.494;2023-02-08T02:16:26;26.83;;;11.88;;
10939;SDS011;5522;42.696;23.494;2023-02-08T02:18:53;27.08;;;13.00;;
10939;SDS011;5522;42.696;23.494;2023-02-08T02:21:24;25.02;;;12.88;;
10939;SDS011;5522;42.696;23.494;2023-02-08T02:33:09;24.95;;;12.30;;
10939;SDS011;5522;42.696;23.494;2023-02-08T02:35:54;24.60;;;11.40;;
10939;SDS011;5522;42.696;23.494;2023-02-08T02:38:28;53.40;;;22.60;;
10939;SDS011;5522;42.696;23.494;2023-02-08T02:41:07;22.63;;;10.63;;
10939;SDS011;5522;42.696;23.494;2023-02-08T02:44:08;34.85;;;16.75;;
10939;SDS011;5522;42.696;23.494;2023-02-08T02:46:39;25.13;;;12.80;;
10939;SDS011;5522;42.696;23.494;2023-02-08T02:49:13;26.13;;;12.52;;
10939;SDS011;5522;42.696;23.494;2023-02-08T02:51:45;24.38;;;11.48;;
10939;SDS011;5522;42.696;23.494;2023-02-08T02:54:22;22.75;;;11.52;;
10939;SDS011;5522;42.696;23.494;2023-02-08T02:56:54;23.52;;;11.57;;
10939;SDS011;5522;42.696;23.494;2023-02-08T02:59:25;28.48;;;14.50;;
10939;SDS011;5522;42.696;23.494;2023-02-08T03:01:53;34.25;;;16.10;;
10939;SDS011;5522;42.696;23.494;2023-02-08T03:07:14;31.25;;;15.23;;
10939;SDS011;5522;42.696;23.494;2023-02-08T03:09:51;27.20;;;12.52;;
10939;SDS011;5522;42.696;23.494;2023-02-08T03:12:34;24.58;;;13.30;;
10939;SDS011;5522;42.696;23.494;2023-02-08T03:15:09;25.58;;;12.93;;
10939;SDS011;5522;42.696;23.494;2023-02-08T03:17:49;26.67;;;12.73;;
10939;SDS011;5522;42.696;23.494;2023-02-08T03:20:27;29.58;;;13.50;;
10939;SDS011;5522;42.696;23.494;2023-02-08T03:22:58;24.27;;;13.10;;
10939;SDS011;5522;42.696;23.494;2023-02-08T03:25:32;28.77;;;13.35;;
10939;SDS011;5522;42.696;23.494;2023-02-08T03:28:07;25.55;;;13.18;;
10939;SDS011;5522;42.696;23.494;2023-02-08T03:30:44;25.75;;;12.88;;
10939;SDS011;5522;42.696;23.494;2023-02-08T03:33:17;34.38;;;16.45;;
10939;SDS011;5522;42.696;23.494;2023-02-08T03:35:51;31.02;;;14.25;;
10939;SDS011;5522;42.696;23.494;2023-02-08T03:38:22;36.75;;;14.65;;
10939;SDS011;5522;42.696;23.494;2023-02-08T03:40:53;31.38;;;14.75;;
10939;SDS011;5522;42.696;23.494;2023-02-08T03:43:24;30.35;;;13.90;;
10939;SDS011;5522;42.696;23.494;2023-02-08T03:45:58;29.83;;;14.05;;
10939;SDS011;5522;42.696;23.494;2023-02-08T03:48:31;23.45;;;12.32;;
10939;SDS011;5522;42.696;23.494;2023-02-08T03:51:01;29.83;;;12.90;;
10939;SDS011;5522;42.696;23.494;2023-02-08T03:53:30;24.90;;;11.55;;
10939;SDS011;5522;42.696;23.494;2023-02-08T03:56:03;25.35;;;12.48;;
10939;SDS011;5522;42.696;23.494;2023-02-08T03:58:37;26.67;;;11.90;;
10939;SDS011;5522;42.696;23.494;2023-02-08T04:01:11;25.00;;;12.40;;
10939;SDS011;5522;42.696;23.494;2023-02-08T04:03:43;24.50;;;11.05;;
10939;SDS011;5522;42.696;23.494;2023-02-08T04:06:15;26.52;;;11.35;;
10939;SDS011;5522;42.696;23.494;2023-02-08T04:08:42;26.10;;;12.38;;
10939;SDS011;5522;42.696;23.494;2023-02-08T04:11:09;29.25;;;12.27;;
10939;SDS011;5522;42.696;23.494;2023-02-08T04:13:36;25.45;;;11.50;;
10939;SDS011;5522;42.696;23.494;2023-02-08T04:16:03;24.42;;;11.55;;
10939;SDS011;5522;42.696;23.494;2023-02-08T04:18:30;19.92;;;10.73;;
10939;SDS011;5522;42.696;23.494;2023-02-08T04:20:57;22.65;;;10.85;;
10939;SDS011;5522;42.696;23.494;2023-02-08T04:23:25;25.20;;;11.77;;
10939;SDS011;5522;42.696;23.494;2023-02-08T04:25:52;24.52;;;11.85;;
10939;SDS011;5522;42.696;23.494;2023-02-08T04:28:19;27.40;;;13.35;;
10939;SDS011;5522;42.696;23.494;2023-02-08T04:30:46;35.53;;;16.05;;
10939;SDS011;5522;42.696;23.494;2023-02-08T04:33:12;30.42;;;13.30;;
10939;SDS011;5522;42.696;23.494;2023-02-08T04:35:39;27.02;;;12.43;;
10939;SDS011;5522;42.696;23.494;2023-02-08T04:38:06;25.60;;;11.60;;
10939;SDS011;5522;42.696;23.494;2023-02-08T04:40:34;26.95;;;11.80;;
10939;SDS011;5522;42.696;23.494;2023-02-08T04:43:01;27.15;;;11.38;;
10939;SDS011;5522;42.696;23.494;2023-02-08T04:45:28;22.23;;;10.52;;
10939;SDS011;5522;42.696;23.494;2023-02-08T04:47:56;21.85;;;9.77;;
10939;SDS011;5522;42.696;23.494;2023-02-08T04:50:23;27.98;;;11.30;;
10939;SDS011;5522;42.696;23.494;2023-02-08T04:52:50;27.00;;;11.80;;
10939;SDS011;5522;42.696;23.494;2023-02-08T04:55:18;27.60;;;12.07;;
10939;SDS011;5522;42.696;23.494;2023-02-08T04:57:46;27.33;;;12.02;;
10939;SDS011;5522;42.696;23.494;2023-02-08T05:00:13;26.50;;;11.23;;
10939;SDS011;5522;42.696;23.494;2023-02-08T05:02:40;28.90;;;11.20;;
10939;SDS011;5522;42.696;23.494;2023-02-08T05:05:07;30.80;;;12.00;;
10939;SDS011;5522;42.696;23.494;2023-02-08T05:07:34;24.02;;;12.18;;
10939;SDS011;5522;42.696;23.494;2023-02-08T05:10:01;26.60;;;12.25;;
10939;SDS011;5522;42.696;23.494;2023-02-08T05:12:28;24.60;;;12.38;;
10939;SDS011;5522;42.696;23.494;2023-02-08T05:14:56;51.80;;;23.65;;
10939;SDS011;5522;42.696;23.494;2023-02-08T05:17:23;52.70;;;24.10;;
10939;SDS011;5522;42.696;23.494;2023-02-08T05:19:50;49.17;;;27.83;;
10939;SDS011;5522;42.696;23.494;2023-02-08T05:22:17;37.42;;;18.90;;
10939;SDS011;5522;42.696;23.494;2023-02-08T05:24:44;73.17;;;32.73;;
10939;SDS011;5522;42.696;23.494;2023-02-08T05:27:10;32.40;;;15.65;;
10939;SDS011;5522;42.696;23.494;2023-02-08T05:29:37;34.33;;;14.80;;
10939;SDS011;5522;42.696;23.494;2023-02-08T05:32:05;25.88;;;11.65;;
10939;SDS011;5522;42.696;23.494;2023-02-08T05:34:32;25.20;;;12.05;;
10939;SDS011;5522;42.696;23.494;2023-02-08T05:36:59;26.70;;;12.45;;
10939;SDS011;5522;42.696;23.494;2023-02-08T05:39:26;31.17;;;12.10;;
10939;SDS011;5522;42.696;23.494;2023-02-08T05:41:53;31.55;;;12.98;;
10939;SDS011;5522;42.696;23.494;2023-02-08T05:44:20;25.20;;;11.07;;
10939;SDS011;5522;42.696;23.494;2023-02-08T05:46:46;23.77;;;10.88;;
10939;SDS011;5522;42.696;23.494;2023-02-08T05:49:15;27.08;;;10.63;;
10939;SDS011;5522;42.696;23.494;2023-02-08T05:51:42;24.03;;;10.57;;
10939;SDS011;5522;42.696;23.494;2023-02-08T05:54:09;27.07;;;9.97;;
10939;SDS011;5522;42.696;23.494;2023-02-08T05:56:36;17.92;;;8.00;;
10939;SDS011;5522;42.696;23.494;2023-02-08T05:59:02;25.00;;;8.80;;
10939;SDS011;5522;42.696;23.494;2023-02-08T06:01:29;20.17;;;7.90;;
10939;SDS011;5522;42.696;23.494;2023-02-08T06:03:57;24.25;;;12.20;;
10939;SDS011;5522;42.696;23.494;2023-02-08T06:06:25;33.10;;;13.10;;
10939;SDS011;5522;42.696;23.494;2023-02-08T06:08:52;23.40;;;10.90;;
10939;SDS011;5522;42.696;23.494;2023-02-08T06:11:19;28.60;;;13.52;;
10939;SDS011;5522;42.696;23.494;2023-02-08T06:13:46;22.52;;;10.50;;
10939;SDS011;5522;42.696;23.494;2023-02-08T06:16:13;23.25;;;10.63;;
10939;SDS011;5522;42.696;23.494;2023-02-08T06:18:40;20.40;;;9.65;;
10939;SDS011;5522;42.696;23.494;2023-02-08T06:21:07;24.38;;;12.52;;
10939;SDS011;5522;42.696;23.494;2023-02-08T06:23:35;29.90;;;14.63;;
10939;SDS011;5522;42.696;23.494;2023-02-08T06:26:02;26.77;;;12.00;;
10939;SDS011;5522;42.696;23.494;2023-02-08T06:28:29;26.67;;;15.02;;
10939;SDS011;5522;42.696;23.494;2023-02-08T06:30:56;43.42;;;22.90;;
10939;SDS011;5522;42.696;23.494;2023-02-08T06:33:22;33.40;;;16.95;;
10939;SDS011;5522;42.696;23.494;2023-02-08T06:35:50;35.95;;;17.70;;
10939;SDS011;5522;42.696;23.494;2023-02-08T06:38:17;39.13;;;20.73;;
10939;SDS011;5522;42.696;23.494;2023-02-08T06:40:46;31.35;;;17.15;;
10939;SDS011;5522;42.696;23.494;2023-02-08T06:43:14;27.50;;;14.32;;
10939;SDS011;5522;42.696;23.494;2023-02-08T06:45:42;24.00;;;13.05;;
10939;SDS011;5522;42.696;23.494;2023-02-08T06:48:10;22.27;;;13.13;;
10939;SDS011;5522;42.696;23.494;2023-02-08T06:50:37;21.88;;;13.88;;
10939;SDS011;5522;42.696;23.494;2023-02-08T06:53:04;21.50;;;13.10;;
10939;SDS011;5522;42.696;23.494;2023-02-08T06:55:31;29.17;;;16.65;;
10939;SDS011;5522;42.696;23.494;2023-02-08T06:57:59;26.80;;;16.55;;
10939;SDS011;5522;42.696;23.494;2023-02-08T07:00:26;33.25;;;18.45;;
10939;SDS011;5522;42.696;23.494;2023-02-08T07:02:52;25.42;;;15.18;;
10939;SDS011;5522;42.696;23.494;2023-02-08T07:05:19;31.05;;;17.38;;
10939;SDS011;5522;42.696;23.494;2023-02-08T07:07:46;30.60;;;16.63;;
10939;SDS011;5522;42.696;23.494;2023-02-08T07:10:13;30.52;;;16.45;;
10939;SDS011;5522;42.696;23.494;2023-02-08T07:12:40;26.65;;;14.10;;
10939;SDS011;5522;42.696;23.494;2023-02-08T07:15:09;25.42;;;14.25;;
10939;SDS011;5522;42.696;23.494;2023-02-08T07:17:37;23.80;;;13.07;;
10939;SDS011;5522;42.696;23.494;2023-02-08T07:20:04;28.08;;;14.10;;
10939;SDS011;5522;42.696;23.494;2023-02-08T07:22:32;24.00;;;13.73;;
10939;SDS011;5522;42.696;23.494;2023-02-08T07:24:59;21.73;;;13.23;;
10939;SDS011;5522;42.696;23.494;2023-02-08T07:27:26;24.00;;;13.52;;
10939;SDS011;5522;42.696;23.494;2023-02-08T07:29:52;20.48;;;13.07;;
10939;SDS011;5522;42.696;23.494;2023-02-08T07:32:21;21.30;;;13.70;;
10939;SDS011;5522;42.696;23.494;2023-02-08T07:34:47;18.85;;;11.55;;
10939;SDS011;5522;42.696;23.494;2023-02-08T07:37:14;17.73;;;11.60;;
10939;SDS011;5522;42.696;23.494;2023-02-08T07:39:41;22.75;;;14.13;;
10939;SDS011;5522;42.696;23.494;2023-02-08T07:42:08;20.33;;;13.27;;
10939;SDS011;5522;42.696;23.494;2023-02-08T07:44:35;18.83;;;12.55;;
10939;SDS011;5522;42.696;23.494;2023-02-08T07:47:03;21.50;;;14.40;;
10939;SDS011;5522;42.696;23.494;2023-02-08T07:49:32;23.13;;;14.00;;
10939;SDS011;5522;42.696;23.494;2023-02-08T07:51:59;19.85;;;13.95;;
10939;SDS011;5522;42.696;23.494;2023-02-08T07:54:27;21.05;;;13.88;;
10939;SDS011;5522;42.696;23.494;2023-02-08T07:56:54;16.98;;;12.85;;
10939;SDS011;5522;42.696;23.494;2023-02-08T07:59:21;20.80;;;13.70;;
10939;SDS011;5522;42.696;23.494;2023-02-08T08:01:48;19.00;;;13.07;;
10939;SDS011;5522;42.696;23.494;2023-02-08T08:04:15;19.85;;;13.02;;
10939;SDS011;5522;42.696;23.494;2023-02-08T08:06:45;21.42;;;13.40;;
10939;SDS011;5522;42.696;23.494;2023-02-08T08:09:13;21.55;;;13.50;;
10939;SDS011;5522;42.696;23.494;2023-02-08T08:11:40;18.70;;;13.25;;
10939;SDS011;5522;42.696;23.494;2023-02-08T08:14:07;22.83;;;14.15;;
10939;SDS011;5522;42.696;23.494;2023-02-08T08:16:34;21.85;;;14.63;;
10939;SDS011;5522;42.696;23.494;2023-02-08T08:19:01;20.83;;;13.77;;
10939;SDS011;5522;42.696;23.494;2023-02-08T08:21:28;19.45;;;12.85;;
10939;SDS011;5522;42.696;23.494;2023-02-08T08:23:56;19.00;;;13.18;;
10939;SDS011;5522;42.696;23.494;2023-02-08T08:26:23;24.10;;;14.88;;
10939;SDS011;5522;42.696;23.494;2023-02-08T08:28:50;23.25;;;13.65;;
10939;SDS011;5522;42.696;23.494;2023-02-08T08:31:18;18.52;;;13.27;;
10939;SDS011;5522;42.696;23.494;2023-02-08T08:33:46;21.08;;;14.25;;
10939;SDS011;5522;42.696;23.494;2023-02-08T08:36:13;23.05;;;14.80;;
10939;SDS011;5522;42.696;23.494;2023-02-08T08:38:40;20.73;;;14.18;;
10939;SDS011;5522;42.696;23.494;2023-02-08T08:41:09;20.98;;;13.15;;
10939;SDS011;5522;42.696;23.494;2023-02-08T08:43:38;20.50;;;13.75;;
10939;SDS011;5522;42.696;23.494;2023-02-08T08:46:05;22.50;;;14.20;;
10939;SDS011;5522;42.696;23.494;2023-02-08T08:48:32;20.23;;;13.88;;
10939;SDS011;5522;42.696;23.494;2023-02-08T08:50:59;20.38;;;12.65;;
10939;SDS011;5522;42.696;23.494;2023-02-08T08:53:26;18.23;;;12.35;;
10939;SDS011;5522;42.696;23.494;2023-02-08T08:55:53;18.15;;;13.05;;
10939;SDS011;5522;42.696;23.494;2023-02-08T08:58:21;16.95;;;12.43;;
10939;SDS011;5522;42.696;23.494;2023-02-08T09:00:48;20.73;;;12.15;;
10939;SDS011;5522;42.696;23.494;2023-02-08T09:03:16;20.38;;;13.65;;
10939;SDS011;5522;42.696;23.494;2023-02-08T09:05:43;18.35;;;13.18;;
10939;SDS011;5522;42.696;23.494;2023-02-08T09:08:09;17.17;;;12.38;;
10939;SDS011;5522;42.696;23.494;2023-02-08T09:10:37;19.55;;;13.55;;
10939;SDS011;5522;42.696;23.494;2023-02-08T09:13:04;20.17;;;11.45;;
10939;SDS011;5522;42.696;23.494;2023-02-08T09:15:33;19.60;;;13.43;;
10939;SDS011;5522;42.696;23.494;2023-02-08T09:18:03;18.48;;;12.48;;
10939;SDS011;5522;42.696;23.494;2023-02-08T09:20:30;16.60;;;11.40;;
10939;SDS011;5522;42.696;23.494;2023-02-08T09:22:56;18.60;;;11.48;;
10939;SDS011;5522;42.696;23.494;2023-02-08T09:25:23;20.17;;;11.68;;
10939;SDS011;5522;42.696;23.494;2023-02-08T09:27:51;15.63;;;11.40;;
10939;SDS011;5522;42.696;23.494;2023-02-08T09:30:18;14.80;;;11.23;;
10939;SDS011;5522;42.696;23.494;2023-02-08T09:32:46;15.35;;;11.40;;
10939;SDS011;5522;42.696;23.494;2023-02-08T09:35:13;19.38;;;12.13;;
10939;SDS011;5522;42.696;23.494;2023-02-08T09:37:40;15.75;;;10.93;;
10939;SDS011;5522;42.696;23.494;2023-02-08T09:40:10;17.02;;;11.77;;
10939;SDS011;5522;42.696;23.494;2023-02-08T09:42:48;20.38;;;13.45;;
10939;SDS011;5522;42.696;23.494;2023-02-08T09:48:22;17.38;;;10.85;;
10939;SDS011;5522;42.696;23.494;2023-02-08T09:50:53;16.90;;;10.73;;
10939;SDS011;5522;42.696;23.494;2023-02-08T09:53:27;14.90;;;9.80;;
10939;SDS011;5522;42.696;23.494;2023-02-08T09:55:58;17.13;;;10.32;;
10939;SDS011;5522;42.696;23.494;2023-02-08T09:58:29;19.00;;;10.73;;
10939;SDS011;5522;42.696;23.494;2023-02-08T10:01:01;18.42;;;11.63;;
10939;SDS011;5522;42.696;23.494;2023-02-08T10:03:32;13.82;;;9.77;;
10939;SDS011;5522;42.696;23.494;2023-02-08T10:06:01;17.48;;;10.13;;
10939;SDS011;5522;42.696;23.494;2023-02-08T10:08:29;16.55;;;10.00;;
10939;SDS011;5522;42.696;23.494;2023-02-08T10:10:58;14.82;;;10.10;;
10939;SDS011;5522;42.696;23.494;2023-02-08T10:13:48;15.25;;;9.48;;
10939;SDS011;5522;42.696;23.494;2023-02-08T10:16:33;13.57;;;8.20;;
10939;SDS011;5522;42.696;23.494;2023-02-08T10:19:13;12.23;;;8.05;;
10939;SDS011;5522;42.696;23.494;2023-02-08T10:21:56;10.88;;;7.68;;
10939;SDS011;5522;42.696;23.494;2023-02-08T10:24:45;10.85;;;7.90;;
10939;SDS011;5522;42.696;23.494;2023-02-08T10:27:40;26.25;;;14.02;;
10939;SDS011;5522;42.696;23.494;2023-02-08T10:30:19;13.18;;;8.43;;
10939;SDS011;5522;42.696;23.494;2023-02-08T10:32:57;15.50;;;8.63;;
10939;SDS011;5522;42.696;23.494;2023-02-08T10:35:28;20.38;;;12.25;;
10939;SDS011;5522;42.696;23.494;2023-02-08T10:38:01;13.73;;;9.25;;
10939;SDS011;5522;42.696;23.494;2023-02-08T10:40:43;10.48;;;5.50;;
10939;SDS011;5522;42.696;23.494;2023-02-08T10:43:14;11.45;;;6.53;;
10939;SDS011;5522;42.696;23.494;2023-02-08T10:45:51;12.38;;;7.47;;
10939;SDS011;5522;42.696;23.494;2023-02-08T10:48:36;12.50;;;6.95;;
10939;SDS011;5522;42.696;23.494;2023-02-08T10:51:13;14.32;;;8.85;;
10939;SDS011;5522;42.696;23.494;2023-02-08T10:53:42;8.40;;;6.18;;
10939;SDS011;5522;42.696;23.494;2023-02-08T10:56:13;8.00;;;5.82;;
10939;SDS011;5522;42.696;23.494;2023-02-08T10:59:00;7.93;;;6.10;;
10939;SDS011;5522;42.696;23.494;2023-02-08T11:01:35;10.80;;;6.22;;
10939;SDS011;5522;42.696;23.494;2023-02-08T11:04:03;8.35;;;4.47;;
10939;SDS011;5522;42.696;23.494;2023-02-08T11:06:33;5.43;;;3.15;;
10939;SDS011;5522;42.696;23.494;2023-02-08T11:08:59;6.30;;;4.50;;
10939;SDS011;5522;42.696;23.494;2023-02-08T11:11:26;8.32;;;5.88;;
10939;SDS011;5522;42.696;23.494;2023-02-08T11:14:04;5.55;;;4.03;;
10939;SDS011;5522;42.696;23.494;2023-02-08T11:16:34;4.50;;;3.35;;
10939;SDS011;5522;42.696;23.494;2023-02-08T11:19:02;5.07;;;3.75;;
10939;SDS011;5522;42.696;23.494;2023-02-08T11:21:34;9.82;;;5.22;;
10939;SDS011;5522;42.696;23.494;2023-02-08T11:24:04;2.53;;;2.28;;
10939;SDS011;5522;42.696;23.494;2023-02-08T11:26:47;11.43;;;4.90;;
10939;SDS011;5522;42.696;23.494;2023-02-08T11:29:16;14.52;;;5.57;;
10939;SDS011;5522;42.696;23.494;2023-02-08T11:31:55;2.88;;;2.00;;
10939;SDS011;5522;42.696;23.494;2023-02-08T11:34:24;3.90;;;1.70;;
10939;SDS011;5522;42.696;23.494;2023-02-08T11:36:53;2.20;;;1.23;;
10939;SDS011;5522;42.696;23.494;2023-02-08T11:39:23;2.42;;;1.42;;
10939;SDS011;5522;42.696;23.494;2023-02-08T11:41:54;5.43;;;1.92;;
10939;SDS011;5522;42.696;23.494;2023-02-08T11:44:25;1.92;;;1.27;;
10939;SDS011;5522;42.696;23.494;2023-02-08T11:46:55;4.65;;;2.45;;
10939;SDS011;5522;42.696;23.494;2023-02-08T11:49:26;3.67;;;2.08;;
10939;SDS011;5522;42.696;23.494;2023-02-08T11:51:57;6.45;;;3.92;;
10939;SDS011;5522;42.696;23.494;2023-02-08T11:54:30;3.75;;;3.17;;
10939;SDS011;5522;42.696;23.494;2023-02-08T11:57:00;8.68;;;4.65;;
10939;SDS011;5522;42.696;23.494;2023-02-08T11:59:28;5.78;;;2.97;;
10939;SDS011;5522;42.696;23.494;2023-02-08T12:01:56;6.45;;;4.47;;
10939;SDS011;5522;42.696;23.494;2023-02-08T12:04:23;6.05;;;3.85;;
10939;SDS011;5522;42.696;23.494;2023-02-08T12:07:10;3.15;;;1.88;;
10939;SDS011;5522;42.696;23.494;2023-02-08T12:10:00;8.05;;;4.38;;
10939;SDS011;5522;42.696;23.494;2023-02-08T12:12:39;9.25;;;4.95;;
10939;SDS011;5522;42.696;23.494;2023-02-08T12:15:22;20.02;;;6.85;;
10939;SDS011;5522;42.696;23.494;2023-02-08T12:20:50;19.90;;;8.65;;
10939;SDS011;5522;42.696;23.494;2023-02-08T12:23:36;23.08;;;8.05;;
10939;SDS011;5522;42.696;23.494;2023-02-08T12:29:12;1.30;;;1.20;;
10939;SDS011;5522;42.696;23.494;2023-02-08T12:31:55;1.85;;;1.17;;
10939;SDS011;5522;42.696;23.494;2023-02-08T12:34:35;6.45;;;4.43;;
10939;SDS011;5522;42.696;23.494;2023-02-08T12:37:15;2.25;;;1.20;;
10939;SDS011;5522;42.696;23.494;2023-02-08T12:40:16;1.92;;;1.00;;
10939;SDS011;5522;42.696;23.494;2023-02-08T12:43:15;3.00;;;1.13;;
10939;SDS011;5522;42.696;23.494;2023-02-08T12:46:01;1.35;;;0.90;;
10939;SDS011;5522;42.696;23.494;2023-02-08T12:48:50;2.92;;;1.90;;
10939;SDS011;5522;42.696;23.494;2023-02-08T12:51:33;3.08;;;2.78;;
10939;SDS011;5522;42.696;23.494;2023-02-08T12:54:07;2.45;;;0.60;;
10939;SDS011;5522;42.696;23.494;2023-02-08T12:56:40;1.92;;;1.05;;
10939;SDS011;5522;42.696;23.494;2023-02-08T12:59:14;2.70;;;1.33;;
10939;SDS011;5522;42.696;23.494;2023-02-08T13:01:47;11.63;;;3.80;;
10939;SDS011;5522;42.696;23.494;2023-02-08T13:04:21;3.75;;;1.50;;
10939;SDS011;5522;42.696;23.494;2023-02-08T13:06:54;1.05;;;0.60;;
10939;SDS011;5522;42.696;23.494;2023-02-08T13:09:28;2.58;;;0.60;;
10939;SDS011;5522;42.696;23.494;2023-02-08T13:12:07;0.70;;;0.55;;
10939;SDS011;5522;42.696;23.494;2023-02-08T13:14:41;0.65;;;0.50;;
10939;SDS011;5522;42.696;23.494;2023-02-08T13:17:12;1.10;;;1.00;;
10939;SDS011;5522;42.696;23.494;2023-02-08T13:19:47;1.05;;;0.50;;
10939;SDS011;5522;42.696;23.494;2023-02-08T13:22:18;0.75;;;0.60;;
10939;SDS011;5522;42.696;23.494;2023-02-08T13:24:47;0.60;;;0.60;;
10939;SDS011;5522;42.696;23.494;2023-02-08T13:27:17;1.85;;;1.00;;
10939;SDS011;5522;42.696;23.494;2023-02-08T13:29:46;1.38;;;0.63;;
10939;SDS011;5522;42.696;23.494;2023-02-08T13:32:15;2.13;;;1.90;;
10939;SDS011;5522;42.696;23.494;2023-02-08T13:34:54;5.07;;;2.88;;
10939;SDS011;5522;42.696;23.494;2023-02-08T13:37:26;18.75;;;7.53;;
10939;SDS011;5522;42.696;23.494;2023-02-08T13:40:00;11.55;;;5.82;;
10939;SDS011;5522;42.696;23.494;2023-02-08T13:42:33;7.22;;;3.28;;
10939;SDS011;5522;42.696;23.494;2023-02-08T13:45:04;7.35;;;3.72;;
10939;SDS011;5522;42.696;23.494;2023-02-08T13:47:35;15.55;;;6.72;;
10939;SDS011;5522;42.696;23.494;2023-02-08T13:53:10;9.88;;;5.10;;
10939;SDS011;5522;42.696;23.494;2023-02-08T13:55:40;5.18;;;3.35;;
10939;SDS011;5522;42.696;23.494;2023-02-08T14:01:27;8.80;;;5.15;;
10939;SDS011;5522;42.696;23.494;2023-02-08T14:07:04;5.85;;;2.33;;
10939;SDS011;5522;42.696;23.494;2023-02-08T14:09:45;5.40;;;3.17;;
10939;SDS011;5522;42.696;23.494;2023-02-08T14:12:20;3.72;;;2.13;;
10939;SDS011;5522;42.696;23.494;2023-02-08T14:15:04;7.85;;;3.53;;
10939;SDS011;5522;42.696;23.494;2023-02-08T14:17:50;1.75;;;1.65;;
10939;SDS011;5522;42.696;23.494;2023-02-08T14:20:20;11.55;;;5.47;;
10939;SDS011;5522;42.696;23.494;2023-02-08T14:22:53;4.97;;;2.45;;
10939;SDS011;5522;42.696;23.494;2023-02-08T14:25:22;5.82;;;3.13;;
10939;SDS011;5522;42.696;23.494;2023-02-08T14:27:52;3.88;;;2.08;;
10939;SDS011;5522;42.696;23.494;2023-02-08T14:30:22;11.40;;;5.30;;
10939;SDS011;5522;42.696;23.494;2023-02-08T14:33:07;6.20;;;3.35;;
10939;SDS011;5522;42.696;23.494;2023-02-08T14:35:38;10.55;;;4.38;;
10939;SDS011;5522;42.696;23.494;2023-02-08T14:47:50;21.85;;;8.60;;
10939;SDS011;5522;42.696;23.494;2023-02-08T14:50:24;11.10;;;3.92;;
10939;SDS011;5522;42.696;23.494;2023-02-08T14:52:55;8.27;;;3.50;;
10939;SDS011;5522;42.696;23.494;2023-02-08T14:55:27;12.30;;;4.78;;
10939;SDS011;5522;42.696;23.494;2023-02-08T14:57:57;10.25;;;5.65;;
10939;SDS011;5522;42.696;23.494;2023-02-08T15:00:28;3.67;;;2.28;;
10939;SDS011;5522;42.696;23.494;2023-02-08T15:02:59;3.95;;;1.88;;
10939;SDS011;5522;42.696;23.494;2023-02-08T15:05:29;6.45;;;3.38;;
10939;SDS011;5522;42.696;23.494;2023-02-08T15:08:01;2.45;;;2.10;;
10939;SDS011;5522;42.696;23.494;2023-02-08T15:10:28;7.15;;;3.40;;
10939;SDS011;5522;42.696;23.494;2023-02-08T15:13:00;10.15;;;4.63;;
10939;SDS011;5522;42.696;23.494;2023-02-08T15:15:31;7.22;;;3.92;;
10939;SDS011;5522;42.696;23.494;2023-02-08T15:18:01;24.50;;;12.63;;
10939;SDS011;5522;42.696;23.494;2023-02-08T15:20:31;35.78;;;14.90;;
10939;SDS011;5522;42.696;23.494;2023-02-08T15:23:01;20.25;;;9.13;;
10939;SDS011;5522;42.696;23.494;2023-02-08T15:25:30;21.90;;;11.00;;
10939;SDS011;5522;42.696;23.494;2023-02-08T15:27:59;23.17;;;10.73;;
10939;SDS011;5522;42.696;23.494;2023-02-08T15:30:29;40.38;;;14.70;;
10939;SDS011;5522;42.696;23.494;2023-02-08T15:32:59;20.63;;;9.70;;
10939;SDS011;5522;42.696;23.494;2023-02-08T15:35:27;21.95;;;9.88;;